sensor_id;sensor_type;location;lat;lon;timestamp;temperature;humidity
44559;DHT22;30270;40.238;18.256;2022-12-07T00:01:35;12.60;99.90
44559;DHT22;30270;40.238;18.256;2022-12-07T00:04:04;12.60;99.90
44559;DHT22;30270;40.238;18.256;2022-12-07T00:06:33;12.60;99.90
44559;DHT22;30270;40.238;18.256;2022-12-07T00:09:01;12.60;99.90
44559;DHT22;30270;40.238;18.256;2022-12-07T00:11:28;12.60;99.90
44559;DHT22;30270;40.238;18.256;2022-12-07T00:14:02;12.70;99.90
44559;DHT22;30270;40.238;18.256;2022-12-07T00:16:32;12.70;99.90
44559;DHT22;30270;40.238;18.256;2022-12-07T00:19:00;12.70;99.90
44559;DHT22;30270;40.238;18.256;2022-12-07T00:21:31;12.60;99.90
44559;DHT22;30270;40.238;18.256;2022-12-07T00:23:59;12.60;99.90
44559;DHT22;30270;40.238;18.256;2022-12-07T00:26:30;12.60;99.90
44559;DHT22;30270;40.238;18.256;2022-12-07T00:29:06;12.60;99.90
44559;DHT22;30270;40.238;18.256;2022-12-07T00:31:36;12.60;99.90
44559;DHT22;30270;40.238;18.256;2022-12-07T00:34:06;12.60;99.90
44559;DHT22;30270;40.238;18.256;2022-12-07T00:36:35;12.60;99.90
44559;DHT22;30270;40.238;18.256;2022-12-07T00:39:03;12.60;99.90
44559;DHT22;30270;40.238;18.256;2022-12-07T00:41:32;12.70;99.90
44559;DHT22;30270;40.238;18.256;2022-12-07T00:43:59;12.60;99.90
44559;DHT22;30270;40.238;18.256;2022-12-07T00:46:27;12.70;99.90
44559;DHT22;30270;40.238;18.256;2022-12-07T00:48:54;12.60;99.90
44559;DHT22;30270;40.238;18.256;2022-12-07T00:51:24;12.60;99.90
44559;DHT22;30270;40.238;18.256;2022-12-07T00:53:52;12.60;99.90
44559;DHT22;30270;40.238;18.256;2022-12-07T00:56:27;12.60;99.90
44559;DHT22;30270;40.238;18.256;2022-12-07T00:58:58;12.50;99.90
44559;DHT22;30270;40.238;18.256;2022-12-07T01:01:28;12.50;99.90
44559;DHT22;30270;40.238;18.256;2022-12-07T01:03:56;12.50;99.90
44559;DHT22;30270;40.238;18.256;2022-12-07T01:06:25;12.40;99.90
44559;DHT22;30270;40.238;18.256;2022-12-07T01:08:53;12.40;99.90
44559;DHT22;30270;40.238;18.256;2022-12-07T01:11:23;12.40;99.90
44559;DHT22;30270;40.238;18.256;2022-12-07T01:13:52;12.40;99.90
44559;DHT22;30270;40.238;18.256;2022-12-07T01:16:22;12.40;99.90
44559;DHT22;30270;40.238;18.256;2022-12-07T01:18:51;12.30;99.90
44559;DHT22;30270;40.238;18.256;2022-12-07T01:21:39;12.30;99.90
44559;DHT22;30270;40.238;18.256;2022-12-07T01:24:10;12.30;99.90
44559;DHT22;30270;40.238;18.256;2022-12-07T01:26:38;12.30;99.90
44559;DHT22;30270;40.238;18.256;2022-12-07T01:29:05;12.30;99.90
44559;DHT22;30270;40.238;18.256;2022-12-07T01:31:33;12.30;99.90
44559;DHT22;30270;40.238;18.256;2022-12-07T01:34:01;12.30;99.90
44559;DHT22;30270;40.238;18.256;2022-12-07T01:36:31;12.30;99.90
44559;DHT22;30270;40.238;18.256;2022-12-07T01:39:05;12.20;99.90
44559;DHT22;30270;40.238;18.256;2022-12-07T01:41:36;12.20;99.90
44559;DHT22;30270;40.238;18.256;2022-12-07T01:46:49;12.20;99.90
44559;DHT22;30270;40.238;18.256;2022-12-07T01:52:16;12.30;99.90
44559;DHT22;30270;40.238;18.256;2022-12-07T01:54:46;12.30;99.90
44559;DHT22;30270;40.238;18.256;2022-12-07T01:57:16;12.30;99.90
44559;DHT22;30270;40.238;18.256;2022-12-07T01:59:46;12.30;99.90
44559;DHT22;30270;40.238;18.256;2022-12-07T02:02:24;12.20;99.90
44559;DHT22;30270;40.238;18.256;2022-12-07T02:04:54;12.20;99.90
44559;DHT22;30270;40.238;18.256;2022-12-07T02:07:23;12.20;99.90
44559;DHT22;30270;40.238;18.256;2022-12-07T02:09:51;12.20;99.90
44559;DHT22;30270;40.238;18.256;2022-12-07T02:12:19;12.20;99.90
44559;DHT22;30270;40.238;18.256;2022-12-07T02:14:48;12.20;99.90
44559;DHT22;30270;40.238;18.256;2022-12-07T02:37:46;12.20;99.90
44559;DHT22;30270;40.238;18.256;2022-12-07T02:42:40;12.20;99.90
44559;DHT22;30270;40.238;18.256;2022-12-07T02:45:13;12.20;99.90
44559;DHT22;30270;40.238;18.256;2022-12-07T02:47:43;12.20;99.90
44559;DHT22;30270;40.238;18.256;2022-12-07T02:50:11;12.20;99.90
44559;DHT22;30270;40.238;18.256;2022-12-07T02:52:39;12.20;99.90
44559;DHT22;30270;40.238;18.256;2022-12-07T02:55:07;12.20;99.90
44559;DHT22;30270;40.238;18.256;2022-12-07T02:57:59;12.10;99.90
44559;DHT22;30270;40.238;18.256;2022-12-07T03:00:31;12.10;99.90
44559;DHT22;30270;40.238;18.256;2022-12-07T03:03:10;12.10;99.90
44559;DHT22;30270;40.238;18.256;2022-12-07T03:06:11;12.00;99.90
44559;DHT22;30270;40.238;18.256;2022-12-07T03:09:07;12.10;99.90
44559;DHT22;30270;40.238;18.256;2022-12-07T03:11:48;12.10;99.90
44559;DHT22;30270;40.238;18.256;2022-12-07T03:14:31;12.10;99.90
44559;DHT22;30270;40.238;18.256;2022-12-07T03:17:14;12.10;99.90
44559;DHT22;30270;40.238;18.256;2022-12-07T03:19:45;12.00;99.90
44559;DHT22;30270;40.238;18.256;2022-12-07T03:22:14;12.10;99.90
44559;DHT22;30270;40.238;18.256;2022-12-07T03:25:00;12.10;99.90
44559;DHT22;30270;40.238;18.256;2022-12-07T03:27:41;12.10;99.90
44559;DHT22;30270;40.238;18.256;2022-12-07T03:30:18;12.00;99.90
44559;DHT22;30270;40.238;18.256;2022-12-07T03:38:16;12.00;99.90
44559;DHT22;30270;40.238;18.256;2022-12-07T03:40:54;11.90;99.90
44559;DHT22;30270;40.238;18.256;2022-12-07T03:43:23;11.80;99.90
44559;DHT22;30270;40.238;18.256;2022-12-07T03:49:27;11.90;99.90
44559;DHT22;30270;40.238;18.256;2022-12-07T03:55:26;11.90;99.90
44559;DHT22;30270;40.238;18.256;2022-12-07T03:57:52;11.90;99.90
44559;DHT22;30270;40.238;18.256;2022-12-07T04:00:22;11.90;99.90
44559;DHT22;30270;40.238;18.256;2022-12-07T04:02:52;11.90;99.90
44559;DHT22;30270;40.238;18.256;2022-12-07T04:05:20;11.90;99.90
44559;DHT22;30270;40.238;18.256;2022-12-07T04:07:48;11.90;99.90
44559;DHT22;30270;40.238;18.256;2022-12-07T04:10:15;11.90;99.90
44559;DHT22;30270;40.238;18.256;2022-12-07T04:12:43;11.90;99.90
44559;DHT22;30270;40.238;18.256;2022-12-07T04:15:11;11.80;99.90
44559;DHT22;30270;40.238;18.256;2022-12-07T04:17:39;11.80;99.90
44559;DHT22;30270;40.238;18.256;2022-12-07T04:20:07;11.70;99.90
44559;DHT22;30270;40.238;18.256;2022-12-07T04:22:35;11.70;99.90
44559;DHT22;30270;40.238;18.256;2022-12-07T04:25:03;11.70;99.90
44559;DHT22;30270;40.238;18.256;2022-12-07T04:27:31;11.60;99.90
44559;DHT22;30270;40.238;18.256;2022-12-07T04:29:59;11.60;99.90
44559;DHT22;30270;40.238;18.256;2022-12-07T04:32:26;11.70;99.90
44559;DHT22;30270;40.238;18.256;2022-12-07T04:34:54;11.70;99.90
44559;DHT22;30270;40.238;18.256;2022-12-07T04:37:22;11.70;99.90
44559;DHT22;30270;40.238;18.256;2022-12-07T04:39:50;11.70;99.90
44559;DHT22;30270;40.238;18.256;2022-12-07T04:42:18;11.60;99.90
44559;DHT22;30270;40.238;18.256;2022-12-07T04:44:45;11.60;99.90
44559;DHT22;30270;40.238;18.256;2022-12-07T04:47:13;11.60;99.90
44559;DHT22;30270;40.238;18.256;2022-12-07T04:49:40;11.60;99.90
44559;DHT22;30270;40.238;18.256;2022-12-07T04:52:08;11.70;99.90
44559;DHT22;30270;40.238;18.256;2022-12-07T04:54:38;11.70;99.90
44559;DHT22;30270;40.238;18.256;2022-12-07T04:57:06;11.70;99.90
44559;DHT22;30270;40.238;18.256;2022-12-07T04:59:33;11.60;99.90
44559;DHT22;30270;40.238;18.256;2022-12-07T05:02:01;11.60;99.90
44559;DHT22;30270;40.238;18.256;2022-12-07T05:04:29;11.60;99.90
44559;DHT22;30270;40.238;18.256;2022-12-07T05:06:56;11.60;99.90
44559;DHT22;30270;40.238;18.256;2022-12-07T05:09:24;11.60;99.90
44559;DHT22;30270;40.238;18.256;2022-12-07T05:11:51;11.60;99.90
44559;DHT22;30270;40.238;18.256;2022-12-07T05:14:20;11.60;99.90
44559;DHT22;30270;40.238;18.256;2022-12-07T05:16:49;11.60;99.90
44559;DHT22;30270;40.238;18.256;2022-12-07T05:19:18;11.60;99.90
44559;DHT22;30270;40.238;18.256;2022-12-07T05:21:46;11.60;99.90
44559;DHT22;30270;40.238;18.256;2022-12-07T05:24:15;11.60;99.90
44559;DHT22;30270;40.238;18.256;2022-12-07T05:26:43;11.60;99.90
44559;DHT22;30270;40.238;18.256;2022-12-07T05:29:13;11.70;99.90
44559;DHT22;30270;40.238;18.256;2022-12-07T05:31:42;11.70;99.90
44559;DHT22;30270;40.238;18.256;2022-12-07T05:34:10;11.70;99.90
44559;DHT22;30270;40.238;18.256;2022-12-07T05:36:37;11.70;99.90
44559;DHT22;30270;40.238;18.256;2022-12-07T05:39:06;11.70;99.90
44559;DHT22;30270;40.238;18.256;2022-12-07T05:41:34;11.70;99.90
44559;DHT22;30270;40.238;18.256;2022-12-07T05:44:20;11.70;99.90
44559;DHT22;30270;40.238;18.256;2022-12-07T05:46:47;11.70;99.90
44559;DHT22;30270;40.238;18.256;2022-12-07T05:49:15;11.60;99.90
44559;DHT22;30270;40.238;18.256;2022-12-07T05:51:42;11.60;99.90
44559;DHT22;30270;40.238;18.256;2022-12-07T05:54:10;11.60;99.90
44559;DHT22;30270;40.238;18.256;2022-12-07T05:56:38;11.70;99.90
44559;DHT22;30270;40.238;18.256;2022-12-07T05:59:05;11.70;99.90
44559;DHT22;30270;40.238;18.256;2022-12-07T06:01:53;11.70;99.90
44559;DHT22;30270;40.238;18.256;2022-12-07T06:04:22;11.70;99.90
44559;DHT22;30270;40.238;18.256;2022-12-07T06:06:50;11.70;99.90
44559;DHT22;30270;40.238;18.256;2022-12-07T06:09:19;11.80;99.90
44559;DHT22;30270;40.238;18.256;2022-12-07T06:11:47;11.80;99.90
44559;DHT22;30270;40.238;18.256;2022-12-07T06:14:33;11.90;99.90
44559;DHT22;30270;40.238;18.256;2022-12-07T06:17:01;11.90;99.90
44559;DHT22;30270;40.238;18.256;2022-12-07T06:19:29;12.10;99.90
44559;DHT22;30270;40.238;18.256;2022-12-07T06:21:57;12.20;99.90
44559;DHT22;30270;40.238;18.256;2022-12-07T06:24:25;12.40;99.90
44559;DHT22;30270;40.238;18.256;2022-12-07T06:26:53;12.70;99.90
44559;DHT22;30270;40.238;18.256;2022-12-07T06:29:20;12.90;99.90
44559;DHT22;30270;40.238;18.256;2022-12-07T06:31:51;13.20;99.90
44559;DHT22;30270;40.238;18.256;2022-12-07T06:34:21;13.40;99.90
44559;DHT22;30270;40.238;18.256;2022-12-07T06:36:53;13.50;99.90
44559;DHT22;30270;40.238;18.256;2022-12-07T06:39:27;13.70;99.90
44559;DHT22;30270;40.238;18.256;2022-12-07T06:41:55;14.10;99.90
44559;DHT22;30270;40.238;18.256;2022-12-07T06:44:23;14.60;99.90
44559;DHT22;30270;40.238;18.256;2022-12-07T06:46:52;15.10;99.90
44559;DHT22;30270;40.238;18.256;2022-12-07T06:49:24;15.90;99.90
44559;DHT22;30270;40.238;18.256;2022-12-07T06:51:52;16.40;99.90
44559;DHT22;30270;40.238;18.256;2022-12-07T06:54:20;16.80;99.90
44559;DHT22;30270;40.238;18.256;2022-12-07T06:56:50;16.80;99.90
44559;DHT22;30270;40.238;18.256;2022-12-07T06:59:18;17.20;99.90
44559;DHT22;30270;40.238;18.256;2022-12-07T07:01:45;17.50;99.90
44559;DHT22;30270;40.238;18.256;2022-12-07T07:04:13;17.60;99.90
44559;DHT22;30270;40.238;18.256;2022-12-07T07:06:40;17.60;99.90
44559;DHT22;30270;40.238;18.256;2022-12-07T07:09:08;17.30;99.90
44559;DHT22;30270;40.238;18.256;2022-12-07T07:11:36;17.50;99.90
44559;DHT22;30270;40.238;18.256;2022-12-07T07:14:04;18.00;99.90
44559;DHT22;30270;40.238;18.256;2022-12-07T07:16:32;18.20;99.90
44559;DHT22;30270;40.238;18.256;2022-12-07T07:19:00;18.40;99.90
44559;DHT22;30270;40.238;18.256;2022-12-07T07:21:28;18.80;99.90
44559;DHT22;30270;40.238;18.256;2022-12-07T07:23:55;18.50;99.90
44559;DHT22;30270;40.238;18.256;2022-12-07T07:26:24;18.80;99.90
44559;DHT22;30270;40.238;18.256;2022-12-07T07:28:51;18.90;99.90
44559;DHT22;30270;40.238;18.256;2022-12-07T07:31:19;19.40;99.90
44559;DHT22;30270;40.238;18.256;2022-12-07T07:33:47;19.00;99.90
44559;DHT22;30270;40.238;18.256;2022-12-07T07:36:15;19.00;99.90
44559;DHT22;30270;40.238;18.256;2022-12-07T07:38:42;19.20;99.90
44559;DHT22;30270;40.238;18.256;2022-12-07T07:41:10;18.60;99.90
44559;DHT22;30270;40.238;18.256;2022-12-07T07:43:38;18.30;99.90
44559;DHT22;30270;40.238;18.256;2022-12-07T07:46:05;17.90;99.90
44559;DHT22;30270;40.238;18.256;2022-12-07T07:48:33;17.40;99.90
44559;DHT22;30270;40.238;18.256;2022-12-07T07:51:05;17.30;99.90
44559;DHT22;30270;40.238;18.256;2022-12-07T07:53:34;17.40;99.90
44559;DHT22;30270;40.238;18.256;2022-12-07T07:56:01;17.50;99.90
44559;DHT22;30270;40.238;18.256;2022-12-07T07:58:29;17.60;99.90
44559;DHT22;30270;40.238;18.256;2022-12-07T08:00:56;17.80;99.90
44559;DHT22;30270;40.238;18.256;2022-12-07T08:03:24;17.90;99.90
44559;DHT22;30270;40.238;18.256;2022-12-07T08:05:52;18.00;99.90
44559;DHT22;30270;40.238;18.256;2022-12-07T08:08:19;17.80;99.90
44559;DHT22;30270;40.238;18.256;2022-12-07T08:10:47;17.90;99.90
44559;DHT22;30270;40.238;18.256;2022-12-07T08:13:17;18.10;99.90
44559;DHT22;30270;40.238;18.256;2022-12-07T08:15:47;17.90;99.90
44559;DHT22;30270;40.238;18.256;2022-12-07T08:18:15;18.00;99.90
44559;DHT22;30270;40.238;18.256;2022-12-07T08:20:43;18.10;99.90
44559;DHT22;30270;40.238;18.256;2022-12-07T08:23:11;18.00;99.90
44559;DHT22;30270;40.238;18.256;2022-12-07T08:25:39;18.10;99.90
44559;DHT22;30270;40.238;18.256;2022-12-07T08:28:07;17.90;99.90
44559;DHT22;30270;40.238;18.256;2022-12-07T08:30:34;17.70;99.90
44559;DHT22;30270;40.238;18.256;2022-12-07T08:33:02;17.60;99.90
44559;DHT22;30270;40.238;18.256;2022-12-07T08:35:32;17.40;99.90
44559;DHT22;30270;40.238;18.256;2022-12-07T08:37:59;17.40;99.90
44559;DHT22;30270;40.238;18.256;2022-12-07T08:40:29;17.40;99.90
44559;DHT22;30270;40.238;18.256;2022-12-07T08:42:57;17.50;99.90
44559;DHT22;30270;40.238;18.256;2022-12-07T08:45:24;17.60;99.90
44559;DHT22;30270;40.238;18.256;2022-12-07T08:50:24;17.70;99.90
44559;DHT22;30270;40.238;18.256;2022-12-07T08:52:55;17.70;99.90
44559;DHT22;30270;40.238;18.256;2022-12-07T08:55:23;17.80;99.90
44559;DHT22;30270;40.238;18.256;2022-12-07T08:57:52;17.90;99.90
44559;DHT22;30270;40.238;18.256;2022-12-07T09:00:20;17.80;99.90
44559;DHT22;30270;40.238;18.256;2022-12-07T09:02:47;17.90;99.90
44559;DHT22;30270;40.238;18.256;2022-12-07T09:05:15;17.90;99.90
44559;DHT22;30270;40.238;18.256;2022-12-07T09:07:44;18.10;99.90
44559;DHT22;30270;40.238;18.256;2022-12-07T09:10:13;18.10;99.90
44559;DHT22;30270;40.238;18.256;2022-12-07T09:12:41;18.20;99.90
44559;DHT22;30270;40.238;18.256;2022-12-07T09:15:09;18.10;99.90
44559;DHT22;30270;40.238;18.256;2022-12-07T09:17:36;18.10;99.90
44559;DHT22;30270;40.238;18.256;2022-12-07T09:20:06;18.20;99.90
44559;DHT22;30270;40.238;18.256;2022-12-07T09:22:33;18.20;99.90
44559;DHT22;30270;40.238;18.256;2022-12-07T09:25:02;18.20;99.90
44559;DHT22;30270;40.238;18.256;2022-12-07T09:27:31;17.80;99.90
44559;DHT22;30270;40.238;18.256;2022-12-07T09:29:58;17.50;99.90
44559;DHT22;30270;40.238;18.256;2022-12-07T09:32:25;17.50;99.90
44559;DHT22;30270;40.238;18.256;2022-12-07T09:34:53;17.50;99.90
44559;DHT22;30270;40.238;18.256;2022-12-07T09:37:21;17.50;99.90
44559;DHT22;30270;40.238;18.256;2022-12-07T09:39:49;17.40;99.90
44559;DHT22;30270;40.238;18.256;2022-12-07T09:42:34;17.60;99.90
44559;DHT22;30270;40.238;18.256;2022-12-07T09:45:06;17.80;99.90
44559;DHT22;30270;40.238;18.256;2022-12-07T09:47:34;17.90;99.90
44559;DHT22;30270;40.238;18.256;2022-12-07T09:50:13;17.90;99.90
44559;DHT22;30270;40.238;18.256;2022-12-07T09:52:42;17.80;99.90
44559;DHT22;30270;40.238;18.256;2022-12-07T09:55:13;17.70;99.90
44559;DHT22;30270;40.238;18.256;2022-12-07T09:57:42;17.60;99.90
44559;DHT22;30270;40.238;18.256;2022-12-07T10:00:15;17.40;99.90
44559;DHT22;30270;40.238;18.256;2022-12-07T10:03:01;17.10;99.90
44559;DHT22;30270;40.238;18.256;2022-12-07T10:05:44;17.00;99.90
44559;DHT22;30270;40.238;18.256;2022-12-07T10:08:13;16.90;99.90
44559;DHT22;30270;40.238;18.256;2022-12-07T10:10:44;16.80;99.90
44559;DHT22;30270;40.238;18.256;2022-12-07T10:13:14;16.80;99.90
44559;DHT22;30270;40.238;18.256;2022-12-07T10:15:52;16.80;99.90
44559;DHT22;30270;40.238;18.256;2022-12-07T10:24:13;17.10;99.90
44559;DHT22;30270;40.238;18.256;2022-12-07T10:32:04;16.90;99.90
44559;DHT22;30270;40.238;18.256;2022-12-07T10:34:37;16.90;99.90
44559;DHT22;30270;40.238;18.256;2022-12-07T10:39:48;16.80;99.90
44559;DHT22;30270;40.238;18.256;2022-12-07T10:42:22;16.60;99.90
44559;DHT22;30270;40.238;18.256;2022-12-07T10:45:08;16.70;99.90
44559;DHT22;30270;40.238;18.256;2022-12-07T10:47:55;16.90;99.90
44559;DHT22;30270;40.238;18.256;2022-12-07T10:51:00;17.00;99.90
44559;DHT22;30270;40.238;18.256;2022-12-07T10:53:52;17.10;99.90
44559;DHT22;30270;40.238;18.256;2022-12-07T11:07:59;17.20;99.90
44559;DHT22;30270;40.238;18.256;2022-12-07T11:19:20;17.40;99.90
44559;DHT22;30270;40.238;18.256;2022-12-07T11:24:54;17.70;99.90
44559;DHT22;30270;40.238;18.256;2022-12-07T11:30:16;17.80;99.90
44559;DHT22;30270;40.238;18.256;2022-12-07T11:33:01;17.40;99.90
44559;DHT22;30270;40.238;18.256;2022-12-07T11:38:40;17.10;99.90
44559;DHT22;30270;40.238;18.256;2022-12-07T11:41:09;17.10;99.90
44559;DHT22;30270;40.238;18.256;2022-12-07T11:47:06;16.90;99.90
44559;DHT22;30270;40.238;18.256;2022-12-07T11:49:54;16.80;99.90
44559;DHT22;30270;40.238;18.256;2022-12-07T11:52:30;16.80;99.90
44559;DHT22;30270;40.238;18.256;2022-12-07T11:55:00;16.90;99.90
44559;DHT22;30270;40.238;18.256;2022-12-07T11:57:37;17.00;99.90
44559;DHT22;30270;40.238;18.256;2022-12-07T12:00:17;17.00;99.90
44559;DHT22;30270;40.238;18.256;2022-12-07T12:02:58;17.00;99.90
44559;DHT22;30270;40.238;18.256;2022-12-07T12:05:28;16.90;99.90
44559;DHT22;30270;40.238;18.256;2022-12-07T12:11:14;16.90;99.90
44559;DHT22;30270;40.238;18.256;2022-12-07T12:19:58;16.70;99.90
44559;DHT22;30270;40.238;18.256;2022-12-07T12:22:37;16.60;99.90
44559;DHT22;30270;40.238;18.256;2022-12-07T12:25:13;16.60;99.90
44559;DHT22;30270;40.238;18.256;2022-12-07T12:27:46;16.60;99.90
44559;DHT22;30270;40.238;18.256;2022-12-07T12:33:28;16.50;99.90
44559;DHT22;30270;40.238;18.256;2022-12-07T12:36:46;16.50;99.90
44559;DHT22;30270;40.238;18.256;2022-12-07T12:39:16;16.60;99.90
44559;DHT22;30270;40.238;18.256;2022-12-07T12:46:57;16.90;99.90
44559;DHT22;30270;40.238;18.256;2022-12-07T12:54:24;17.10;99.90
44559;DHT22;30270;40.238;18.256;2022-12-07T13:02:36;16.90;99.90
44559;DHT22;30270;40.238;18.256;2022-12-07T13:07:51;17.00;99.90
44559;DHT22;30270;40.238;18.256;2022-12-07T13:12:59;17.00;99.90
44559;DHT22;30270;40.238;18.256;2022-12-07T13:31:52;16.70;99.90
44559;DHT22;30270;40.238;18.256;2022-12-07T13:37:26;16.60;99.90
44559;DHT22;30270;40.238;18.256;2022-12-07T13:39:59;16.60;99.90
44559;DHT22;30270;40.238;18.256;2022-12-07T13:42:32;16.60;99.90
44559;DHT22;30270;40.238;18.256;2022-12-07T13:45:21;16.70;99.90
44559;DHT22;30270;40.238;18.256;2022-12-07T13:47:53;16.80;99.90
44559;DHT22;30270;40.238;18.256;2022-12-07T13:50:31;16.80;99.90
44559;DHT22;30270;40.238;18.256;2022-12-07T13:53:00;16.70;99.90
44559;DHT22;30270;40.238;18.256;2022-12-07T13:55:29;16.60;99.90
44559;DHT22;30270;40.238;18.256;2022-12-07T13:57:57;16.60;99.90
44559;DHT22;30270;40.238;18.256;2022-12-07T14:00:26;16.50;99.90
44559;DHT22;30270;40.238;18.256;2022-12-07T14:03:00;16.50;99.90
44559;DHT22;30270;40.238;18.256;2022-12-07T14:05:30;16.50;99.90
44559;DHT22;30270;40.238;18.256;2022-12-07T14:08:21;16.40;99.90
44559;DHT22;30270;40.238;18.256;2022-12-07T14:13:30;16.30;99.90
44559;DHT22;30270;40.238;18.256;2022-12-07T14:15:58;16.30;99.90
44559;DHT22;30270;40.238;18.256;2022-12-07T14:18:27;16.20;99.90
44559;DHT22;30270;40.238;18.256;2022-12-07T14:21:24;16.20;99.90
44559;DHT22;30270;40.238;18.256;2022-12-07T14:26:39;16.10;99.90
44559;DHT22;30270;40.238;18.256;2022-12-07T14:31:54;16.10;99.90
44559;DHT22;30270;40.238;18.256;2022-12-07T14:34:22;16.10;99.90
44559;DHT22;30270;40.238;18.256;2022-12-07T14:36:50;16.00;99.90
44559;DHT22;30270;40.238;18.256;2022-12-07T14:39:18;16.10;99.90
44559;DHT22;30270;40.238;18.256;2022-12-07T14:41:46;16.10;99.90
44559;DHT22;30270;40.238;18.256;2022-12-07T14:44:21;16.00;99.90
44559;DHT22;30270;40.238;18.256;2022-12-07T14:46:50;16.00;99.90
44559;DHT22;30270;40.238;18.256;2022-12-07T14:49:38;16.00;99.90
44559;DHT22;30270;40.238;18.256;2022-12-07T14:52:27;15.90;99.90
44559;DHT22;30270;40.238;18.256;2022-12-07T14:55:34;15.90;99.90
44559;DHT22;30270;40.238;18.256;2022-12-07T14:58:01;15.90;99.90
44559;DHT22;30270;40.238;18.256;2022-12-07T15:00:29;15.80;99.90
44559;DHT22;30270;40.238;18.256;2022-12-07T15:02:57;15.70;99.90
44559;DHT22;30270;40.238;18.256;2022-12-07T15:05:25;15.60;99.90
44559;DHT22;30270;40.238;18.256;2022-12-07T15:07:53;15.60;99.90
44559;DHT22;30270;40.238;18.256;2022-12-07T15:10:28;15.50;99.90
44559;DHT22;30270;40.238;18.256;2022-12-07T15:13:02;15.40;99.90
44559;DHT22;30270;40.238;18.256;2022-12-07T15:15:49;15.30;99.90
44559;DHT22;30270;40.238;18.256;2022-12-07T15:18:18;15.30;99.90
44559;DHT22;30270;40.238;18.256;2022-12-07T15:20:46;15.30;99.90
44559;DHT22;30270;40.238;18.256;2022-12-07T15:23:14;15.20;99.90
44559;DHT22;30270;40.238;18.256;2022-12-07T15:25:44;15.20;99.90
44559;DHT22;30270;40.238;18.256;2022-12-07T15:28:12;15.20;99.90
44559;DHT22;30270;40.238;18.256;2022-12-07T15:30:42;15.10;99.90
44559;DHT22;30270;40.238;18.256;2022-12-07T15:33:11;15.10;99.90
44559;DHT22;30270;40.238;18.256;2022-12-07T15:35:43;15.00;99.90
44559;DHT22;30270;40.238;18.256;2022-12-07T15:38:11;15.00;99.90
44559;DHT22;30270;40.238;18.256;2022-12-07T15:40:39;15.00;99.90
44559;DHT22;30270;40.238;18.256;2022-12-07T15:43:10;15.00;99.90
44559;DHT22;30270;40.238;18.256;2022-12-07T15:45:58;15.00;99.90
44559;DHT22;30270;40.238;18.256;2022-12-07T15:48:26;14.90;99.90
44559;DHT22;30270;40.238;18.256;2022-12-07T15:51:05;15.00;99.90
44559;DHT22;30270;40.238;18.256;2022-12-07T15:53:34;15.00;99.90
44559;DHT22;30270;40.238;18.256;2022-12-07T15:56:06;15.00;99.90
44559;DHT22;30270;40.238;18.256;2022-12-07T15:58:35;14.90;99.90
44559;DHT22;30270;40.238;18.256;2022-12-07T16:01:17;14.80;99.90
44559;DHT22;30270;40.238;18.256;2022-12-07T16:03:45;14.80;99.90
44559;DHT22;30270;40.238;18.256;2022-12-07T16:06:18;14.70;99.90
44559;DHT22;30270;40.238;18.256;2022-12-07T16:08:46;14.70;99.90
44559;DHT22;30270;40.238;18.256;2022-12-07T16:11:14;14.70;99.90
44559;DHT22;30270;40.238;18.256;2022-12-07T16:13:42;14.70;99.90
44559;DHT22;30270;40.238;18.256;2022-12-07T16:16:12;14.70;99.90
44559;DHT22;30270;40.238;18.256;2022-12-07T16:18:42;14.60;99.90
44559;DHT22;30270;40.238;18.256;2022-12-07T16:21:10;14.60;99.90
44559;DHT22;30270;40.238;18.256;2022-12-07T16:23:39;14.60;99.90
44559;DHT22;30270;40.238;18.256;2022-12-07T16:26:10;14.60;99.90
44559;DHT22;30270;40.238;18.256;2022-12-07T16:28:38;14.50;99.90
44559;DHT22;30270;40.238;18.256;2022-12-07T16:31:09;14.50;99.90
44559;DHT22;30270;40.238;18.256;2022-12-07T16:33:38;14.50;99.90
44559;DHT22;30270;40.238;18.256;2022-12-07T16:36:07;14.50;99.90
44559;DHT22;30270;40.238;18.256;2022-12-07T16:38:36;14.40;99.90
44559;DHT22;30270;40.238;18.256;2022-12-07T16:41:05;14.40;99.90
44559;DHT22;30270;40.238;18.256;2022-12-07T16:43:34;14.40;99.90
44559;DHT22;30270;40.238;18.256;2022-12-07T16:46:03;14.30;99.90
44559;DHT22;30270;40.238;18.256;2022-12-07T16:48:31;14.40;99.90
44559;DHT22;30270;40.238;18.256;2022-12-07T16:51:03;14.40;99.90
44559;DHT22;30270;40.238;18.256;2022-12-07T16:53:31;14.40;99.90
44559;DHT22;30270;40.238;18.256;2022-12-07T16:55:59;14.30;99.90
44559;DHT22;30270;40.238;18.256;2022-12-07T16:58:27;14.30;99.90
44559;DHT22;30270;40.238;18.256;2022-12-07T17:00:54;14.20;99.90
44559;DHT22;30270;40.238;18.256;2022-12-07T17:03:22;14.10;99.90
44559;DHT22;30270;40.238;18.256;2022-12-07T17:05:50;14.00;99.90
44559;DHT22;30270;40.238;18.256;2022-12-07T17:08:18;14.00;99.90
44559;DHT22;30270;40.238;18.256;2022-12-07T17:10:45;14.00;99.90
44559;DHT22;30270;40.238;18.256;2022-12-07T17:13:13;14.00;99.90
44559;DHT22;30270;40.238;18.256;2022-12-07T17:16:02;14.00;99.90
44559;DHT22;30270;40.238;18.256;2022-12-07T17:18:33;13.90;99.90
44559;DHT22;30270;40.238;18.256;2022-12-07T17:21:06;13.90;99.90
44559;DHT22;30270;40.238;18.256;2022-12-07T17:23:35;13.90;99.90
44559;DHT22;30270;40.238;18.256;2022-12-07T17:26:11;13.90;99.90
44559;DHT22;30270;40.238;18.256;2022-12-07T17:28:39;13.90;99.90
44559;DHT22;30270;40.238;18.256;2022-12-07T17:31:09;13.90;99.90
44559;DHT22;30270;40.238;18.256;2022-12-07T17:33:37;13.80;99.90
44559;DHT22;30270;40.238;18.256;2022-12-07T17:36:22;13.80;99.90
44559;DHT22;30270;40.238;18.256;2022-12-07T17:38:51;13.80;99.90
44559;DHT22;30270;40.238;18.256;2022-12-07T17:44:10;13.70;99.90
44559;DHT22;30270;40.238;18.256;2022-12-07T17:46:39;13.80;99.90
44559;DHT22;30270;40.238;18.256;2022-12-07T17:49:06;13.80;99.90
44559;DHT22;30270;40.238;18.256;2022-12-07T17:51:34;13.80;99.90
44559;DHT22;30270;40.238;18.256;2022-12-07T17:54:20;13.80;99.90
44559;DHT22;30270;40.238;18.256;2022-12-07T17:56:48;13.80;99.90
44559;DHT22;30270;40.238;18.256;2022-12-07T17:59:16;13.80;99.90
44559;DHT22;30270;40.238;18.256;2022-12-07T18:01:44;13.80;99.90
44559;DHT22;30270;40.238;18.256;2022-12-07T18:04:12;13.90;99.90
44559;DHT22;30270;40.238;18.256;2022-12-07T18:06:40;13.90;99.90
44559;DHT22;30270;40.238;18.256;2022-12-07T18:09:08;13.80;99.90
44559;DHT22;30270;40.238;18.256;2022-12-07T18:11:36;13.80;99.90
44559;DHT22;30270;40.238;18.256;2022-12-07T18:14:05;13.80;99.90